Sitc Xiamen — 3ELU — position and weather

sailwx.info

Track history (hours):
 
Tides and Currents Weather Stations Pressure Air Temp Water Temp Dewpoint Dewpoint Depression Visibility Wind Speed Wind Dir Waves Ship Positions

Sitc Xiamen

Last reported at 2017-Nov-18 06:28 UTC. Time now 2017-Dec-15 06:46 UTC.
Position N 22°06' E 114°20'.
Warning: this ship's position is 27 days out of date.

Length 145 m; draft 6.2 m.

Type: Ship (hazmat cat A). MMSI: 355090000.

Date/timePositionNaut miles runAvg speedWind from/ knotsBaromVisibWave heightAir tempDewpointWater temp
2017-Nov-18 06:28N 22°06' E 114°20'1014.8
2017-Nov-18 05:46N 22°12' E 114°11'511.1
2017-Nov-18 05:16N 22°15' E 114°06'0 0.0
2017-Nov-18 00:25N 22°15' E 114°06'0 0.1
2017-Nov-17 23:55N 22°15' E 114°06'0 0.0
2017-Nov-17 23:22N 22°15' E 114°06'0 0.0
2017-Nov-17 21:52N 22°15' E 114°06'0 0.0
2017-Nov-17 21:22N 22°15' E 114°06'0 0.1
2017-Nov-17 20:37N 22°15' E 114°06'0 0.0
2017-Nov-17 20:28N 22°15' E 114°06'6 1.0
2017-Nov-17 13:58N 22°21' E 114°04'614.3
2017-Nov-17 13:30N 22°21' E 113°57'611.2
2017-Nov-17 13:01N 22°25' E 113°53'5 9.2
2017-Nov-17 12:31N 22°29' E 113°52'0 0.4
2017-Nov-17 11:59N 22°29' E 113°52'0 0.0
2017-Nov-17 11:29N 22°29' E 113°52'0 0.0
2017-Nov-17 10:59N 22°29' E 113°52'0 0.0
2017-Nov-17 10:29N 22°29' E 113°52'0 0.0
2017-Nov-17 09:59N 22°29' E 113°52'0 0.0
2017-Nov-17 09:29N 22°29' E 113°52'0 0.0
2017-Nov-17 08:59N 22°29' E 113°52'0 0.0
2017-Nov-17 08:29N 22°29' E 113°52'0 0.0
2017-Nov-17 07:59N 22°29' E 113°52'0 0.0
2017-Nov-17 07:08N 22°29' E 113°52'0 0.0
2017-Nov-17 06:50N 22°29' E 113°52'0 0.0
2017-Nov-17 06:23N 22°29' E 113°52'0 0.0
2017-Nov-17 04:47N 22°29' E 113°52'0 0.0
2017-Nov-17 04:29N 22°29' E 113°52'0 0.0
2017-Nov-17 03:20N 22°29' E 113°52'0 0.0
2017-Nov-17 02:55N 22°29' E 113°52'2 4.2
2017-Nov-17 02:30N 22°28' E 113°52'4 7.3
2017-Nov-17 02:00N 22°24' E 113°54'4 7.4
2017-Nov-17 01:30N 22°21' E 113°56'611.4
2017-Nov-17 01:00N 22°21' E 114°02'  
Track history (hours):
 
Tides and Currents Weather Stations Pressure Air Temp Water Temp Dewpoint Dewpoint Depression Visibility Wind Speed Wind Dir Waves Ship Positions

Sitc Xiamen

Last reported at 2017-Nov-18 06:28 UTC. Time now 2017-Dec-15 06:46 UTC.
Position N 22°06' E 114°20'.
Warning: this ship's position is 27 days out of date.

Length 145 m; draft 6.2 m.

Type: Ship (hazmat cat A). MMSI: 355090000.

Date/timePositionNaut miles runAvg speedWind from/ knotsBaromVisibWave heightAir tempDewpointWater temp
2017-Nov-18 06:28N 22°06' E 114°20'1014.8
2017-Nov-18 05:46N 22°12' E 114°11'511.1
2017-Nov-18 05:16N 22°15' E 114°06'0 0.0
2017-Nov-18 00:25N 22°15' E 114°06'0 0.1
2017-Nov-17 23:55N 22°15' E 114°06'0 0.0
2017-Nov-17 23:22N 22°15' E 114°06'0 0.0
2017-Nov-17 21:52N 22°15' E 114°06'0 0.0
2017-Nov-17 21:22N 22°15' E 114°06'0 0.1
2017-Nov-17 20:37N 22°15' E 114°06'0 0.0
2017-Nov-17 20:28N 22°15' E 114°06'6 1.0
2017-Nov-17 13:58N 22°21' E 114°04'614.3
2017-Nov-17 13:30N 22°21' E 113°57'611.2
2017-Nov-17 13:01N 22°25' E 113°53'5 9.2
2017-Nov-17 12:31N 22°29' E 113°52'0 0.4
2017-Nov-17 11:59N 22°29' E 113°52'0 0.0
2017-Nov-17 11:29N 22°29' E 113°52'0 0.0
2017-Nov-17 10:59N 22°29' E 113°52'0 0.0
2017-Nov-17 10:29N 22°29' E 113°52'0 0.0
2017-Nov-17 09:59N 22°29' E 113°52'0 0.0
2017-Nov-17 09:29N 22°29' E 113°52'0 0.0
2017-Nov-17 08:59N 22°29' E 113°52'0 0.0
2017-Nov-17 08:29N 22°29' E 113°52'0 0.0
2017-Nov-17 07:59N 22°29' E 113°52'0 0.0
2017-Nov-17 07:08N 22°29' E 113°52'0 0.0
2017-Nov-17 06:50N 22°29' E 113°52'0 0.0
2017-Nov-17 06:23N 22°29' E 113°52'0 0.0
2017-Nov-17 04:47N 22°29' E 113°52'0 0.0
2017-Nov-17 04:29N 22°29' E 113°52'0 0.0
2017-Nov-17 03:20N 22°29' E 113°52'0 0.0
2017-Nov-17 02:55N 22°29' E 113°52'2 4.2
2017-Nov-17 02:30N 22°28' E 113°52'4 7.3
2017-Nov-17 02:00N 22°24' E 113°54'4 7.4
2017-Nov-17 01:30N 22°21' E 113°56'611.4
2017-Nov-17 01:00N 22°21' E 114°02'  

Dump ship's entire track history